createdAt,value
2018-07-24T00:00:57.218Z,10.73
2018-07-24T00:03:27.617Z,11.13
2018-07-24T00:05:57.976Z,10.47
2018-07-24T00:08:28.334Z,10.83
2018-07-24T00:10:58.734Z,11.23
2018-07-24T00:13:29.114Z,10.07
2018-07-24T00:15:59.612Z,10.53
2018-07-24T00:18:29.976Z,10.23
2018-07-24T00:21:00.343Z,10.03
2018-07-24T00:23:30.684Z,10.23
2018-07-24T00:26:01.046Z,10.57
2018-07-24T00:28:31.224Z,9.90
2018-07-24T00:31:01.614Z,10.17
2018-07-24T00:33:32.080Z,10.43
2018-07-24T00:36:02.394Z,10.30
2018-07-24T00:38:32.955Z,10.33
2018-07-24T00:41:03.254Z,10.73
2018-07-24T00:43:33.762Z,10.97
2018-07-24T00:46:04.295Z,9.97
2018-07-24T00:48:34.668Z,10.40
2018-07-24T00:51:05.182Z,11.60
2018-07-24T00:53:35.703Z,11.67
2018-07-24T00:56:06.456Z,10.60
2018-07-24T00:58:37.023Z,11.40
2018-07-24T01:01:07.464Z,11.63
2018-07-24T01:03:37.848Z,12.33
2018-07-24T01:06:08.173Z,11.33
2018-07-24T01:08:39.097Z,12.23
2018-07-24T01:11:09.863Z,12.63
2018-07-24T01:13:40.377Z,11.73
2018-07-24T01:16:11.081Z,12.17
2018-07-24T01:18:41.797Z,13.13
2018-07-24T01:21:12.283Z,12.13
2018-07-24T01:23:42.838Z,12.60
2018-07-24T01:26:13.327Z,12.53
2018-07-24T01:28:43.700Z,11.70
2018-07-24T01:31:14.066Z,12.20
2018-07-24T01:33:44.701Z,11.73
2018-07-24T01:36:15.210Z,12.97
2018-07-24T01:38:45.548Z,11.97
2018-07-24T01:41:16.033Z,12.10
2018-07-24T01:43:46.362Z,12.93
2018-07-24T01:46:16.876Z,12.73
2018-07-24T01:48:47.430Z,12.50
2018-07-24T01:51:17.841Z,11.70
2018-07-24T01:53:48.380Z,11.57
2018-07-24T01:56:18.879Z,12.60
2018-07-24T01:58:49.202Z,11.23
2018-07-24T02:01:19.644Z,11.40
2018-07-24T02:06:47.374Z,11.27
2018-07-24T02:09:18.410Z,11.17
2018-07-24T02:11:48.759Z,9.57
2018-07-24T02:14:19.143Z,10.67
2018-07-24T02:16:49.767Z,9.60
2018-07-24T02:19:20.328Z,10.27
2018-07-24T02:21:50.902Z,10.73
2018-07-24T02:24:21.577Z,10.17
2018-07-24T02:26:52.371Z,10.47
2018-07-24T02:29:22.910Z,10.27
2018-07-24T02:31:53.335Z,9.50
2018-07-24T02:34:23.686Z,9.77
2018-07-24T02:36:54.132Z,10.03
2018-07-24T02:39:24.564Z,9.67
2018-07-24T02:41:55.228Z,9.47
2018-07-24T02:44:25.601Z,9.40
2018-07-24T02:46:56.094Z,9.47
2018-07-24T02:49:26.758Z,10.00
2018-07-24T02:51:57.188Z,9.57
2018-07-24T02:54:27.631Z,9.17
2018-07-24T02:56:58.141Z,10.03
2018-07-24T02:59:28.712Z,9.50
2018-07-24T03:01:59.099Z,9.83
2018-07-24T03:04:29.374Z,9.30
2018-07-24T03:06:59.818Z,10.10
2018-07-24T03:09:30.581Z,10.13
2018-07-24T03:12:01.001Z,9.77
2018-07-24T03:14:31.593Z,10.37
2018-07-24T03:17:02.265Z,9.80
2018-07-24T03:19:32.604Z,9.60
2018-07-24T03:22:02.963Z,9.23
2018-07-24T03:24:33.298Z,10.20
2018-07-24T03:27:03.927Z,9.93
2018-07-24T03:29:34.819Z,9.73
2018-07-24T03:32:05.151Z,9.73
2018-07-24T03:34:35.489Z,10.00
2018-07-24T03:37:06.061Z,9.23
2018-07-24T03:39:36.361Z,9.40
2018-07-24T03:42:07.111Z,9.93
2018-07-24T03:44:37.469Z,9.83
2018-07-24T03:47:07.871Z,9.30
2018-07-24T03:49:38.501Z,9.53
2018-07-24T03:52:08.836Z,9.87
2018-07-24T03:54:39.319Z,9.30
2018-07-24T03:57:10.254Z,9.43
2018-07-24T03:59:40.816Z,9.40
2018-07-24T04:02:11.512Z,9.50
2018-07-24T04:04:42.117Z,8.73
2018-07-24T04:07:12.434Z,9.27
2018-07-24T04:09:42.929Z,9.40
2018-07-24T04:12:13.723Z,9.43
2018-07-24T04:14:44.162Z,10.03
2018-07-24T04:17:14.530Z,8.70
2018-07-24T04:19:44.918Z,9.23
2018-07-24T04:22:15.582Z,9.23
2018-07-24T04:24:46.709Z,9.60
2018-07-24T04:27:17.113Z,9.10
2018-07-24T04:29:47.442Z,9.47
2018-07-24T04:32:17.835Z,9.90
2018-07-24T04:34:48.158Z,9.30
2018-07-24T04:37:18.767Z,9.13
2018-07-24T04:39:49.279Z,9.50
2018-07-24T04:42:19.803Z,9.93
2018-07-24T04:44:50.241Z,9.77
2018-07-24T04:47:20.820Z,9.30
2018-07-24T04:49:51.228Z,9.53
2018-07-24T04:52:21.555Z,8.70
2018-07-24T04:54:52.160Z,9.63
2018-07-24T04:57:22.678Z,9.07
2018-07-24T04:59:53.157Z,8.80
2018-07-24T05:02:23.728Z,9.40
2018-07-24T05:04:54.109Z,8.23
2018-07-24T05:07:24.977Z,7.67
2018-07-24T05:09:55.228Z,8.40
2018-07-24T05:12:25.633Z,8.77
2018-07-24T05:14:56.243Z,7.27
2018-07-24T05:17:26.711Z,7.70
2018-07-24T05:19:57.274Z,8.30
2018-07-24T05:22:27.701Z,7.27
2018-07-24T05:24:58.255Z,6.73
2018-07-24T05:27:28.664Z,6.20
2018-07-24T05:29:59.040Z,7.00
2018-07-24T05:32:29.585Z,7.50
2018-07-24T05:34:59.950Z,7.30
2018-07-24T05:37:30.386Z,7.07
2018-07-24T05:40:00.894Z,8.07
2018-07-24T05:42:31.212Z,8.83
2018-07-24T05:45:01.675Z,7.27
2018-07-24T05:47:31.941Z,7.33
2018-07-24T05:50:02.326Z,7.27
2018-07-24T05:52:32.915Z,7.33
2018-07-24T05:55:03.243Z,9.07
2018-07-24T05:57:33.622Z,15.50
2018-07-24T06:00:04.192Z,9.30
2018-07-24T06:02:34.801Z,9.77
2018-07-24T06:05:05.651Z,8.00
2018-07-24T06:07:36.276Z,10.67
2018-07-24T06:10:06.622Z,8.80
2018-07-24T06:12:37.090Z,12.77
2018-07-24T06:15:08.813Z,9.60
2018-07-24T06:17:39.221Z,11.63
2018-07-24T06:20:10.883Z,10.70
2018-07-24T06:22:41.503Z,9.67
2018-07-24T06:25:11.880Z,11.23
2018-07-24T06:27:42.509Z,10.43
2018-07-24T06:30:13.227Z,14.30
2018-07-24T06:32:43.579Z,11.50
2018-07-24T06:35:14.042Z,10.90
2018-07-24T06:37:44.519Z,11.70
2018-07-24T06:40:15.237Z,11.03
2018-07-24T06:42:45.612Z,11.20
2018-07-24T06:45:15.996Z,16.00
2018-07-24T06:47:46.424Z,11.57
2018-07-24T06:50:16.829Z,10.30
2018-07-24T06:52:47.328Z,14.43
2018-07-24T06:55:17.797Z,10.60
2018-07-24T06:57:48.380Z,9.40
2018-07-24T07:00:18.733Z,10.43
2018-07-24T07:02:49.032Z,10.27
2018-07-24T07:05:19.496Z,9.53
2018-07-24T07:07:49.949Z,10.10
2018-07-24T07:10:20.360Z,10.23
2018-07-24T07:12:50.642Z,8.53
2018-07-24T07:15:20.986Z,9.07
2018-07-24T07:17:51.281Z,8.27
2018-07-24T07:20:21.897Z,9.23
2018-07-24T07:22:52.188Z,9.37
2018-07-24T07:25:22.910Z,8.63
2018-07-24T07:27:53.622Z,8.20
2018-07-24T07:30:23.996Z,7.77
2018-07-24T07:32:54.358Z,9.20
2018-07-24T07:35:24.851Z,8.03
2018-07-24T07:37:55.408Z,8.57
2018-07-24T07:40:25.758Z,8.17
2018-07-24T07:42:56.262Z,7.50
2018-07-24T07:45:26.832Z,8.47
2018-07-24T07:47:57.183Z,6.83
2018-07-24T07:50:28.714Z,8.77
2018-07-24T07:52:59.162Z,8.53
2018-07-24T07:55:29.986Z,9.20
2018-07-24T07:58:00.567Z,8.53
2018-07-24T08:00:30.964Z,9.53
2018-07-24T08:03:01.302Z,8.60
2018-07-24T08:05:31.641Z,7.90
2018-07-24T08:08:02.054Z,7.83
2018-07-24T08:10:32.602Z,8.43
2018-07-24T08:13:02.962Z,8.93
2018-07-24T08:15:33.540Z,8.57
2018-07-24T08:18:04.068Z,9.37
2018-07-24T08:20:34.446Z,10.70
2018-07-24T08:23:05.384Z,9.10
2018-07-24T08:25:35.724Z,9.40
2018-07-24T08:28:07.311Z,10.40
2018-07-24T08:30:38.014Z,11.00
2018-07-24T08:33:08.580Z,13.60
2018-07-24T08:35:39.219Z,9.57
2018-07-24T08:38:10.060Z,10.17
2018-07-24T08:40:41.589Z,9.67
2018-07-24T08:43:12.487Z,10.47
2018-07-24T08:45:43.187Z,10.30
2018-07-24T08:48:13.862Z,10.27
2018-07-24T08:50:44.507Z,14.10
2018-07-24T08:53:15.524Z,10.10
2018-07-24T08:55:46.566Z,10.57
2018-07-24T08:58:16.983Z,12.53
2018-07-24T09:00:47.512Z,10.87
2018-07-24T09:03:18.254Z,10.97
2018-07-24T09:05:48.565Z,12.30
2018-07-24T09:08:18.962Z,9.93
2018-07-24T09:10:49.498Z,11.00
2018-07-24T09:13:19.869Z,15.43
2018-07-24T09:15:51.186Z,11.43
2018-07-24T09:18:21.400Z,10.80
2018-07-24T09:20:51.680Z,9.83
2018-07-24T09:23:22.011Z,9.93
2018-07-24T09:25:52.417Z,9.23
2018-07-24T09:28:22.977Z,10.37
2018-07-24T09:30:53.545Z,9.97
2018-07-24T09:33:24.965Z,8.87
2018-07-24T09:35:55.278Z,10.87
2018-07-24T09:38:25.741Z,9.17
2018-07-24T09:40:56.109Z,9.27
2018-07-24T09:43:26.510Z,8.37
2018-07-24T09:45:56.920Z,10.50
2018-07-24T09:48:27.244Z,10.20
2018-07-24T09:50:57.540Z,10.37
2018-07-24T09:53:28.074Z,9.90
2018-07-24T09:55:58.221Z,10.93
2018-07-24T09:58:28.593Z,10.80
2018-07-24T10:01:04.113Z,9.63
2018-07-24T10:03:34.335Z,9.57
2018-07-24T10:06:04.790Z,10.13
2018-07-24T10:08:35.090Z,11.57
2018-07-24T10:11:05.611Z,10.17
2018-07-24T10:13:35.845Z,11.03
2018-07-24T10:16:06.505Z,8.80
2018-07-24T10:18:36.892Z,10.07
2018-07-24T10:21:07.570Z,10.43
2018-07-24T10:23:37.955Z,9.27
2018-07-24T10:26:08.865Z,9.97
2018-07-24T10:28:39.205Z,9.20
2018-07-24T10:31:09.632Z,9.27
2018-07-24T10:33:39.918Z,8.40
2018-07-24T10:36:10.528Z,9.37
2018-07-24T10:38:40.858Z,9.97
2018-07-24T10:41:11.694Z,8.77
2018-07-24T10:43:42.234Z,10.40
2018-07-24T10:46:12.709Z,8.83
2018-07-24T10:48:43.037Z,9.03
2018-07-24T10:51:13.346Z,9.77
2018-07-24T10:53:43.637Z,10.60
2018-07-24T10:56:13.946Z,10.27
2018-07-24T10:58:44.298Z,7.80
2018-07-24T11:01:14.638Z,9.97
2018-07-24T11:03:45.088Z,7.10
2018-07-24T11:06:15.329Z,7.70
2018-07-24T11:08:46.385Z,7.40
2018-07-24T11:11:16.655Z,10.17
2018-07-24T11:13:47.162Z,7.73
2018-07-24T11:16:17.807Z,10.13
2018-07-24T11:18:48.439Z,9.57
2018-07-24T11:21:18.606Z,8.17
2018-07-24T11:23:48.969Z,8.07
2018-07-24T11:26:19.438Z,8.87
2018-07-24T11:28:50.051Z,10.60
2018-07-24T11:31:20.552Z,7.77
2018-07-24T11:33:50.908Z,8.47
2018-07-24T11:36:22.337Z,12.67
2018-07-24T11:38:52.925Z,7.57
2018-07-24T11:41:23.238Z,6.60
2018-07-24T11:43:53.673Z,16.47
2018-07-24T11:46:24.110Z,6.33
2018-07-24T11:48:54.606Z,7.90
2018-07-24T11:51:25.282Z,8.53
2018-07-24T11:53:55.716Z,7.30
2018-07-24T11:56:26.107Z,7.40
2018-07-24T11:58:56.405Z,7.70
2018-07-24T12:01:26.859Z,7.57
2018-07-24T12:03:58.028Z,5.33
2018-07-24T12:06:28.362Z,7.63
2018-07-24T12:08:58.722Z,6.20
2018-07-24T12:11:29.108Z,7.73
2018-07-24T12:13:59.549Z,6.17
2018-07-24T12:16:30.080Z,6.00
2018-07-24T12:19:00.523Z,5.87
2018-07-24T12:21:30.832Z,6.13
2018-07-24T12:24:01.424Z,5.47
2018-07-24T12:26:31.883Z,6.30
2018-07-24T12:29:02.331Z,4.83
2018-07-24T12:31:32.435Z,5.07
2018-07-24T12:34:02.970Z,5.53
2018-07-24T12:36:33.618Z,5.47
2018-07-24T12:39:04.808Z,6.00
2018-07-24T12:41:36.228Z,5.50
2018-07-24T12:44:06.514Z,5.93
2018-07-24T12:46:37.228Z,5.80
2018-07-24T12:49:07.539Z,7.30
2018-07-24T12:51:38.174Z,6.23
2018-07-24T12:54:08.507Z,6.73
2018-07-24T12:56:39.087Z,6.50
2018-07-24T12:59:09.506Z,6.70
2018-07-24T13:01:39.909Z,6.63
2018-07-24T13:04:10.541Z,5.83
2018-07-24T13:06:41.076Z,6.67
2018-07-24T13:09:12.308Z,6.20
2018-07-24T13:11:42.822Z,6.77
2018-07-24T13:14:13.355Z,6.97
2018-07-24T13:16:44.329Z,6.30
2018-07-24T13:19:14.743Z,6.90
2018-07-24T13:21:45.352Z,6.20
2018-07-24T13:24:15.705Z,6.20
2018-07-24T13:26:46.070Z,6.90
2018-07-24T13:29:16.416Z,7.20
2018-07-24T13:31:47.020Z,6.00
2018-07-24T13:34:17.416Z,6.47
2018-07-24T13:36:47.783Z,6.47
2018-07-24T13:39:18.322Z,5.90
2018-07-24T13:41:48.773Z,5.93
2018-07-24T13:44:19.012Z,8.70
2018-07-24T13:46:49.790Z,9.27
2018-07-24T13:49:20.444Z,7.67
2018-07-24T13:51:50.761Z,7.73
2018-07-24T13:54:21.066Z,7.87
2018-07-24T13:56:51.476Z,8.23
2018-07-24T13:59:22.013Z,7.97
2018-07-24T14:01:52.772Z,7.83
2018-07-24T14:04:23.326Z,9.33
2018-07-24T14:06:54.345Z,8.97
2018-07-24T14:09:24.783Z,8.47
2018-07-24T14:11:55.274Z,8.63
2018-07-24T14:14:25.667Z,8.57
2018-07-24T14:16:55.983Z,7.85
2018-07-24T14:19:26.393Z,9.43
2018-07-24T14:21:56.747Z,8.50
2018-07-24T14:24:27.448Z,8.40
2018-07-24T14:26:57.885Z,8.53
2018-07-24T14:29:28.176Z,8.27
2018-07-24T14:31:58.901Z,7.43
2018-07-24T14:34:29.245Z,8.63
2018-07-24T14:36:59.939Z,8.70
2018-07-24T14:39:30.595Z,8.20
2018-07-24T14:42:00.946Z,9.13
2018-07-24T14:44:31.355Z,10.37
2018-07-24T14:47:01.992Z,8.20
2018-07-24T14:49:32.346Z,9.80
2018-07-24T14:52:02.798Z,8.60
2018-07-24T14:54:33.183Z,9.50
2018-07-24T14:57:03.730Z,9.83
2018-07-24T14:59:34.267Z,9.93
2018-07-24T15:02:04.737Z,9.47
2018-07-24T15:04:35.085Z,9.40
2018-07-24T15:07:05.590Z,8.67
2018-07-24T15:09:36.393Z,8.93
2018-07-24T15:12:06.759Z,9.07
2018-07-24T15:14:37.299Z,9.37
2018-07-24T15:17:08.446Z,9.50
2018-07-24T15:19:39.017Z,12.97
2018-07-24T15:22:09.692Z,9.73
2018-07-24T15:24:40.120Z,8.60
2018-07-24T15:27:10.601Z,9.67
2018-07-24T15:29:40.934Z,9.63
2018-07-24T15:32:11.622Z,9.30
2018-07-24T15:34:42.352Z,8.80
2018-07-24T15:37:13.303Z,9.57
2018-07-24T15:39:43.915Z,9.47
2018-07-24T15:42:14.554Z,9.63
2018-07-24T15:44:45.125Z,9.63
2018-07-24T15:47:15.613Z,9.90
2018-07-24T15:49:46.377Z,9.67
2018-07-24T15:52:16.780Z,10.37
2018-07-24T15:54:47.250Z,9.07
2018-07-24T15:57:17.702Z,8.70
2018-07-24T15:59:48.111Z,10.30
2018-07-24T16:02:18.439Z,8.93
2018-07-24T16:04:48.997Z,9.33
2018-07-24T16:07:19.338Z,8.13
2018-07-24T16:09:49.717Z,10.17
2018-07-24T16:12:20.087Z,9.20
2018-07-24T16:14:50.496Z,10.47
2018-07-24T16:17:21.805Z,9.93
2018-07-24T16:19:52.187Z,10.27
2018-07-24T16:22:22.638Z,9.97
2018-07-24T16:24:53.080Z,10.03
2018-07-24T16:27:23.568Z,9.77
2018-07-24T16:29:53.829Z,9.60
2018-07-24T16:32:24.495Z,9.67
2018-07-24T16:34:54.871Z,10.60
2018-07-24T16:37:25.331Z,10.33
2018-07-24T16:39:55.965Z,10.17
2018-07-24T16:42:26.513Z,10.10
2018-07-24T16:44:56.865Z,10.27
2018-07-24T16:47:27.718Z,9.90
2018-07-24T16:49:58.063Z,8.97
2018-07-24T16:52:28.383Z,9.80
2018-07-24T16:54:58.970Z,9.67
2018-07-24T16:57:29.361Z,10.57
2018-07-24T16:59:59.808Z,10.37
2018-07-24T17:02:30.562Z,10.27
2018-07-24T17:05:00.923Z,10.47
2018-07-24T17:07:31.483Z,11.00
2018-07-24T17:10:02.719Z,11.43
2018-07-24T17:12:33.329Z,10.90
2018-07-24T17:15:03.872Z,11.13
2018-07-24T17:17:35.568Z,11.67
2018-07-24T17:20:06.443Z,12.37
2018-07-24T17:22:37.285Z,11.33
2018-07-24T17:25:07.954Z,10.90
2018-07-24T17:27:38.346Z,9.97
2018-07-24T17:30:08.771Z,10.97
2018-07-24T17:32:39.338Z,10.37
2018-07-24T17:35:09.927Z,10.10
2018-07-24T17:37:40.867Z,10.53
2018-07-24T17:40:12.013Z,11.30
2018-07-24T17:42:43.212Z,9.27
2018-07-24T17:45:13.707Z,10.13
2018-07-24T17:47:44.299Z,11.57
2018-07-24T17:50:14.826Z,11.37
2018-07-24T17:52:45.411Z,10.90
2018-07-24T17:55:15.780Z,11.07
2018-07-24T17:57:46.208Z,10.97
2018-07-24T18:00:16.810Z,11.17
2018-07-24T18:02:47.985Z,11.60
2018-07-24T18:05:18.339Z,12.40
2018-07-24T18:07:48.930Z,10.23
2018-07-24T18:10:19.437Z,11.53
2018-07-24T18:12:50.040Z,11.30
2018-07-24T18:15:20.856Z,10.47
2018-07-24T18:17:51.442Z,11.10
2018-07-24T18:20:21.940Z,11.50
2018-07-24T18:22:52.325Z,11.00
2018-07-24T18:25:22.809Z,11.77
2018-07-24T18:27:53.289Z,11.20
2018-07-24T18:30:23.726Z,11.03
2018-07-24T18:32:54.077Z,13.13
2018-07-24T18:35:24.550Z,12.37
2018-07-24T18:37:55.171Z,12.07
2018-07-24T18:40:25.632Z,10.53
2018-07-24T18:42:56.036Z,9.27
2018-07-24T18:45:26.525Z,9.77
2018-07-24T18:47:56.906Z,10.03
2018-07-24T18:50:27.210Z,9.30
2018-07-24T18:52:57.517Z,11.13
2018-07-24T18:55:27.854Z,9.73
2018-07-24T18:57:58.177Z,9.50
2018-07-24T19:00:28.692Z,9.23
2018-07-24T19:02:59.176Z,9.30
2018-07-24T19:05:29.759Z,11.07
2018-07-24T19:08:00.218Z,9.50
2018-07-24T19:10:31.516Z,8.87
2018-07-24T19:13:02.199Z,10.13
2018-07-24T19:15:32.668Z,10.27
2018-07-24T19:18:03.843Z,9.20
2018-07-24T19:20:34.452Z,9.93
2018-07-24T19:23:05.012Z,8.77
2018-07-24T19:25:36.547Z,10.00
2018-07-24T19:28:06.866Z,10.10
2018-07-24T19:30:37.497Z,11.60
2018-07-24T19:33:07.815Z,12.07
2018-07-24T19:35:38.415Z,13.07
2018-07-24T19:38:08.958Z,11.30
2018-07-24T19:40:39.387Z,11.70
2018-07-24T19:43:10.029Z,10.90
2018-07-24T19:45:40.670Z,10.93
2018-07-24T19:48:11.087Z,11.60
2018-07-24T19:50:41.478Z,10.97
2018-07-24T19:53:12.167Z,10.77
2018-07-24T19:55:42.509Z,13.30
2018-07-24T19:58:12.895Z,11.40
2018-07-24T20:00:43.683Z,12.33
2018-07-24T20:03:14.067Z,11.47
2018-07-24T20:05:44.518Z,11.83
2018-07-24T20:08:14.807Z,11.33
2018-07-24T20:10:45.247Z,10.43
2018-07-24T20:13:16.009Z,11.60
2018-07-24T20:15:46.513Z,12.00
2018-07-24T20:18:16.773Z,11.30
2018-07-24T20:20:47.401Z,11.07
2018-07-24T20:23:18.019Z,11.80
2018-07-24T20:25:48.321Z,11.10
2018-07-24T20:28:18.727Z,10.73
2018-07-24T20:30:49.206Z,10.93
2018-07-24T20:33:19.872Z,10.33
2018-07-24T20:35:50.279Z,10.50
2018-07-24T20:38:20.696Z,11.17
2018-07-24T20:40:51.211Z,13.20
2018-07-24T20:43:21.746Z,11.00
2018-07-24T20:45:52.420Z,10.50
2018-07-24T20:48:22.782Z,10.73
2018-07-24T20:50:53.312Z,10.20
2018-07-24T20:53:24.527Z,9.70
2018-07-24T20:55:56.205Z,10.23
2018-07-24T20:58:26.490Z,10.13
2018-07-24T21:00:57.018Z,10.07
2018-07-24T21:03:27.674Z,9.33
2018-07-24T21:05:58.225Z,9.97
2018-07-24T21:08:28.932Z,11.60
2018-07-24T21:10:59.442Z,10.17
2018-07-24T21:13:29.674Z,12.03
2018-07-24T21:16:00.787Z,10.67
2018-07-24T21:18:31.248Z,10.53
2018-07-24T21:21:03.228Z,10.57
2018-07-24T21:23:33.802Z,10.67
2018-07-24T21:26:04.447Z,10.67
2018-07-24T21:28:35.009Z,11.57
2018-07-24T21:31:05.349Z,11.93
2018-07-24T21:33:35.730Z,12.47
2018-07-24T21:36:06.095Z,11.97
2018-07-24T21:38:37.593Z,13.47
2018-07-24T21:41:08.502Z,12.13
2018-07-24T21:43:39.164Z,11.73
2018-07-24T21:46:09.498Z,12.67
2018-07-24T21:48:39.837Z,12.23
2018-07-24T21:51:10.140Z,12.33
2018-07-24T21:53:40.518Z,12.67
2018-07-24T21:56:10.906Z,12.70
2018-07-24T21:58:41.395Z,12.60
2018-07-24T22:01:12.119Z,12.67
2018-07-24T22:03:43.019Z,12.63
2018-07-24T22:06:13.260Z,12.67
2018-07-24T22:08:43.599Z,13.47
2018-07-24T22:11:14.117Z,12.83
2018-07-24T22:13:44.629Z,12.50
2018-07-24T22:16:15.214Z,12.60
2018-07-24T22:18:45.613Z,12.57
2018-07-24T22:21:16.140Z,12.30
2018-07-24T22:23:46.592Z,10.10
2018-07-24T22:26:17.037Z,9.43
2018-07-24T22:28:47.783Z,10.20
2018-07-24T22:31:18.468Z,10.10
2018-07-24T22:33:48.898Z,10.43
2018-07-24T22:36:19.874Z,8.80
2018-07-24T22:38:50.331Z,11.23
2018-07-24T22:41:20.618Z,9.33
2018-07-24T22:43:51.214Z,9.43
2018-07-24T22:46:21.573Z,10.20
2018-07-24T22:48:52.085Z,10.00
2018-07-24T22:51:22.461Z,10.23
2018-07-24T22:53:52.895Z,10.73
2018-07-24T22:56:23.874Z,9.33
2018-07-24T22:58:54.670Z,9.83
2018-07-24T23:01:25.145Z,9.63
2018-07-24T23:03:55.680Z,12.10
2018-07-24T23:06:26.008Z,10.10
2018-07-24T23:08:56.430Z,11.33
2018-07-24T23:11:27.038Z,9.80
2018-07-24T23:13:57.364Z,8.50
2018-07-24T23:16:28.319Z,10.13
2018-07-24T23:18:58.729Z,8.57
2018-07-24T23:21:29.102Z,8.10
2018-07-24T23:23:59.577Z,7.87
2018-07-24T23:26:29.923Z,7.40
2018-07-24T23:29:00.252Z,7.80
2018-07-24T23:31:30.860Z,8.00
2018-07-24T23:34:01.194Z,7.63
2018-07-24T23:36:31.766Z,7.40
2018-07-24T23:39:02.195Z,7.57
2018-07-24T23:41:32.774Z,8.57
2018-07-24T23:44:03.210Z,8.30
2018-07-24T23:46:33.544Z,9.17
2018-07-24T23:49:04.403Z,9.43
2018-07-24T23:51:34.858Z,9.03
2018-07-24T23:54:05.214Z,9.50
2018-07-24T23:56:35.712Z,9.23
2018-07-24T23:59:06.302Z,9.63
